Time;durP1;ratioP1;P1;durP2;ratioP2;P2;SDS_P1;SDS_P2;PMS_P1;PMS_P2;Temp;Humidity;BMP_temperature;BMP_pressure;BME280_temperature;BME280_humidity;BME280_pressure;Samples;Min_cycle;Max_cycle;Signal;HPM_P1;HPM_P2
2023/09/08 00:00:24;;;;;;;;;;;;;;;26.00;49.40;101217.41;4194921;28;19969;-69
2023/09/08 00:02:26;;;;;;;;;;;;;;;25.99;49.38;101216.56;4195808;27;19925;-69
2023/09/08 00:04:28;;;;;;;;;;;;;;;25.99;49.40;101216.56;4195717;28;19928;-68
2023/09/08 00:06:31;;;;;;;;;;;;;;;25.98;49.34;101216.72;4195599;28;19982;-68
2023/09/08 00:08:32;;;;;;;;;;;;;;;25.98;49.40;101208.63;4195136;28;19929;-69
2023/09/08 00:10:34;;;;;;;;;;;;;;;25.97;49.52;101218.53;4193814;28;19948;-69
2023/09/08 00:12:36;;;;;;;;;;;;;;;25.97;49.54;101215.84;4195858;27;19924;-69
2023/09/08 00:14:38;;;;;;;;;;;;;;;25.96;49.78;101213.31;4195783;28;20039;-68
2023/09/08 00:16:42;;;;;;;;;;;;;;;25.96;49.54;101221.41;4195411;28;20290;-68
2023/09/08 00:18:44;;;;;;;;;;;;;;;25.95;49.35;101212.44;4195322;28;19925;-68
2023/09/08 00:20:45;;;;;;;;;;;;;;;25.94;49.55;101217.97;4194520;28;19924;-69
2023/09/08 00:22:47;;;;;;;;;;;;;;;25.94;49.84;101217.97;4195504;28;19925;-69
2023/09/08 00:24:49;;;;;;;;;;;;;;;25.93;49.44;101214.44;4195271;28;19928;-69
2023/09/08 00:26:51;;;;;;;;;;;;;;;25.93;49.61;101218.97;4195533;28;19924;-69
2023/09/08 00:28:52;;;;;;;;;;;;;;;25.92;49.75;101215.44;4195354;28;19934;-69
2023/09/08 00:30:54;;;;;;;;;;;;;;;25.92;50.17;101215.44;4194320;28;19985;-69
2023/09/08 00:32:55;;;;;;;;;;;;;;;25.90;50.15;101214.72;4195575;28;20011;-69
2023/09/08 00:34:57;;;;;;;;;;;;;;;25.90;50.04;101220.09;4195398;28;19988;-69
2023/09/08 00:37:00;;;;;;;;;;;;;;;25.90;49.83;101216.56;4195390;28;19935;-69
2023/09/08 00:39:02;;;;;;;;;;;;;;;25.89;49.88;101212.19;4195124;28;20132;-69
2023/09/08 00:41:06;;;;;;;;;;;;;;;25.88;50.23;101211.31;4194210;28;19968;-69
2023/09/08 00:43:08;;;;;;;;;;;;;;;25.88;50.71;101210.47;4195057;28;19969;-69
2023/09/08 00:45:10;;;;;;;;;;;;;;;25.87;50.30;101212.31;4195486;28;19925;-69
2023/09/08 00:47:12;;;;;;;;;;;;;;;25.88;50.49;101213.16;4195222;28;20019;-69
2023/09/08 00:49:14;;;;;;;;;;;;;;;25.85;50.14;101217.00;4195209;28;19967;-69
2023/09/08 00:51:15;;;;;;;;;;;;;;;25.84;50.17;101210.75;4194102;28;20022;-69
2023/09/08 00:53:17;;;;;;;;;;;;;;;25.84;50.38;101215.28;4194780;28;19932;-69
2023/09/08 00:55:19;;;;;;;;;;;;;;;25.83;50.51;101213.59;4195192;27;19924;-69
2023/09/08 00:57:20;;;;;;;;;;;;;;;25.83;50.86;101218.97;4194787;28;19925;-69
2023/09/08 00:59:22;;;;;;;;;;;;;;;25.82;50.88;101218.16;4195041;28;20023;-69
2023/09/08 01:01:24;;;;;;;;;;;;;;;25.81;50.84;101216.44;4194008;28;19964;-69
2023/09/08 01:03:25;;;;;;;;;;;;;;;25.81;50.77;101215.59;4195263;28;19931;-69
2023/09/08 01:05:27;;;;;;;;;;;;;;;25.79;50.90;101207.63;4194908;28;20309;-68
2023/09/08 01:07:30;;;;;;;;;;;;;;;25.80;50.64;101211.19;4194663;28;19988;-68
2023/09/08 01:09:32;;;;;;;;;;;;;;;25.79;50.86;101217.56;4194607;28;19929;-69
2023/09/08 01:11:34;;;;;;;;;;;;;;;25.78;51.10;101219.41;4193980;28;19924;-68
2023/09/08 01:13:35;;;;;;;;;;;;;;;25.77;50.64;101217.72;4195024;28;19931;-69
2023/09/08 01:15:37;;;;;;;;;;;;;;;25.77;50.67;101220.41;4194880;28;19925;-69
2023/09/08 01:17:39;;;;;;;;;;;;;;;25.76;50.69;101213.31;4194733;28;20459;-69
2023/09/08 01:19:47;;;;;;;;;;;;;;;25.76;50.56;101213.31;4194461;27;19957;-69
2023/09/08 01:21:56;;;;;;;;;;;;;;;25.76;50.89;101220.53;4193363;28;19925;-68
2023/09/08 01:24:17;;;;;;;;;;;;;;;25.74;50.74;101209.91;4195061;28;20033;-68
2023/09/08 01:26:20;;;;;;;;;;;;;;;25.73;50.94;101210.06;4194640;28;20023;-68
2023/09/08 01:28:23;;;;;;;;;;;;;;;25.72;50.76;101211.88;4194748;28;19928;-68
2023/09/08 01:30:26;;;;;;;;;;;;;;;25.73;50.89;101212.75;4193457;28;20401;-69
2023/09/08 01:32:29;;;;;;;;;;;;;;;25.72;50.76;101208.34;4194744;28;19932;-68
2023/09/08 01:34:30;;;;;;;;;;;;;;;25.71;51.06;101207.50;4194639;28;19929;-68
2023/09/08 01:36:35;;;;;;;;;;;;;;;25.71;51.13;101207.50;4194264;28;20401;-69
2023/09/08 01:38:37;;;;;;;;;;;;;;;25.70;51.21;101207.63;4194328;28;19924;-68
2023/09/08 01:40:39;;;;;;;;;;;;;;;25.68;51.36;101211.31;4193589;28;19924;-69
2023/09/08 01:42:41;;;;;;;;;;;;;;;25.69;51.37;101214.88;4194473;28;20441;-68
2023/09/08 01:44:42;;;;;;;;;;;;;;;25.68;51.03;101215.88;4194667;28;19928;-69
2023/09/08 01:46:44;;;;;;;;;;;;;;;25.67;50.85;101214.16;4194449;28;19931;-69
2023/09/08 01:48:46;;;;;;;;;;;;;;;25.67;51.05;101216.84;4194153;28;19969;-68
2023/09/08 01:50:47;;;;;;;;;;;;;;;25.66;51.46;101216.03;4193054;28;20016;-69
2023/09/08 01:52:49;;;;;;;;;;;;;;;25.65;51.37;101213.44;4209824;28;19942;-69
2023/09/08 01:54:51;;;;;;;;;;;;;;;25.65;51.43;101208.06;4194176;28;20408;-69
2023/09/08 01:56:52;;;;;;;;;;;;;;;25.64;51.36;101214.47;4194494;28;20075;-69
2023/09/08 01:58:54;;;;;;;;;;;;;;;25.63;51.02;101210.06;4176418;28;19925;-68
2023/09/08 02:01:00;;;;;;;;;;;;;;;25.61;51.08;101207.50;4193537;28;20356;-67
2023/09/08 02:03:01;;;;;;;;;;;;;;;25.62;51.24;101203.81;4194289;27;19967;-68
2023/09/08 02:05:03;;;;;;;;;;;;;;;25.61;51.02;101212.88;4194037;28;19935;-68
2023/09/08 02:07:05;;;;;;;;;;;;;;;25.60;51.23;101207.63;4194189;28;19924;-68
2023/09/08 02:09:08;;;;;;;;;;;;;;;25.59;51.59;101205.94;4194390;28;19925;-68
2023/09/08 02:11:10;;;;;;;;;;;;;;;25.59;51.51;101214.88;4192929;28;19939;-68
2023/09/08 02:13:12;;;;;;;;;;;;;;;25.59;50.96;101214.00;4193994;28;19924;-69
2023/09/08 02:15:14;;;;;;;;;;;;;;;25.58;51.26;101220.38;4194247;28;19929;-69
2023/09/08 02:17:15;;;;;;;;;;;;;;;25.58;51.78;101223.09;4194039;28;19925;-69
2023/09/08 02:19:17;;;;;;;;;;;;;;;25.57;51.78;101210.63;4193612;28;20279;-70
2023/09/08 02:21:19;;;;;;;;;;;;;;;25.56;51.42;101231.31;4192786;28;19925;-69
2023/09/08 02:23:21;;;;;;;;;;;;;;;25.56;51.30;101227.78;4194142;28;19993;-70
2023/09/08 02:25:23;;;;;;;;;;;;;;;25.55;51.58;101226.91;4193935;28;19982;-69
2023/09/08 02:27:24;;;;;;;;;;;;;;;25.55;51.37;101226.06;4193896;28;19924;-69
2023/09/08 02:29:26;;;;;;;;;;;;;;;25.53;51.53;101228.91;4193822;28;19929;-68
2023/09/08 02:31:28;;;;;;;;;;;;;;;25.52;51.49;101230.75;4192903;28;19930;-69
2023/09/08 02:33:29;;;;;;;;;;;;;;;25.52;51.63;101232.59;4194935;28;20008;-60
2023/09/08 02:35:35;;;;;;;;;;;;;;;25.51;51.80;101230.88;4197018;28;19956;-69
2023/09/08 02:37:37;;;;;;;;;;;;;;;25.50;51.92;101229.19;4197151;28;20446;-69
2023/09/08 02:39:38;;;;;;;;;;;;;;;25.49;51.94;101227.47;4196915;28;19925;-69
2023/09/08 02:41:40;;;;;;;;;;;;;;;25.48;52.07;101233.84;4195872;28;20011;-68
2023/09/08 02:43:41;;;;;;;;;;;;;;;25.48;51.88;101231.16;4196710;28;19931;-68
2023/09/08 02:45:43;;;;;;;;;;;;;;;25.48;51.57;101226.63;4196794;28;19928;-68
2023/09/08 02:47:45;;;;;;;;;;;;;;;25.47;51.77;101224.06;4196777;28;19924;-68
2023/09/08 02:49:49;;;;;;;;;;;;;;;25.47;51.59;101221.38;4196368;28;19978;-68
2023/09/08 02:51:50;;;;;;;;;;;;;;;25.46;51.94;101230.47;4195817;28;19924;-70
2023/09/08 02:53:52;;;;;;;;;;;;;;;25.45;51.77;101224.22;4196869;28;19934;-69
2023/09/08 02:55:57;;;;;;;;;;;;;;;25.44;51.83;101235.13;4196705;28;19929;-68
2023/09/08 02:57:59;;;;;;;;;;;;;;;25.43;51.81;101223.53;4196658;28;20441;-69
2023/09/08 03:00:01;;;;;;;;;;;;;;;25.42;51.88;101226.31;4196748;28;19924;-70
2023/09/08 03:02:03;;;;;;;;;;;;;;;25.43;51.56;101233.41;4195477;28;19931;-68
2023/09/08 03:04:04;;;;;;;;;;;;;;;25.43;51.54;101239.69;4196253;28;19935;-69
2023/09/08 03:06:06;;;;;;;;;;;;;;;25.42;51.54;101240.66;4196600;28;20329;-69
2023/09/08 03:08:08;;;;;;;;;;;;;;;25.41;52.04;101238.94;4196673;28;20350;-69
2023/09/08 03:10:10;;;;;;;;;;;;;;;25.41;51.60;101236.25;4196268;28;19925;-68
2023/09/08 03:12:11;;;;;;;;;;;;;;;25.41;51.91;101230.00;4195672;28;19963;-68
2023/09/08 03:14:13;;;;;;;;;;;;;;;25.39;51.93;101232.00;4196414;28;19924;-69
2023/09/08 03:16:14;;;;;;;;;;;;;;;25.38;52.21;101230.31;4196469;27;19928;-69
2023/09/08 03:18:16;;;;;;;;;;;;;;;25.36;52.04;101225.88;4196118;28;19928;-70
2023/09/08 03:20:18;;;;;;;;;;;;;;;25.36;51.94;101225.88;4196458;28;19947;-68
2023/09/08 03:22:19;;;;;;;;;;;;;;;25.36;52.17;101222.34;4195435;28;19973;-68
2023/09/08 03:24:24;;;;;;;;;;;;;;;25.35;52.13;101226.84;4196378;28;20299;-69
2023/09/08 03:26:26;;;;;;;;;;;;;;;25.34;51.85;101225.16;4178676;28;19929;-69
2023/09/08 03:28:27;;;;;;;;;;;;;;;25.34;51.91;101218.94;4196359;28;19956;-69
2023/09/08 03:30:29;;;;;;;;;;;;;;;25.34;51.93;101216.25;4195345;28;19924;-69
2023/09/08 03:32:30;;;;;;;;;;;;;;;25.33;51.87;101218.06;4211010;28;19924;-69
2023/09/08 03:34:34;;;;;;;;;;;;;;;25.33;52.28;101218.06;4196418;28;20070;-69
2023/09/08 03:36:36;;;;;;;;;;;;;;;25.32;52.03;101219.06;4196290;28;19963;-68
2023/09/08 03:38:38;;;;;;;;;;;;;;;25.33;52.05;101218.06;4196371;28;19929;-68
2023/09/08 03:40:40;;;;;;;;;;;;;;;25.32;52.15;101220.91;4195505;28;19924;-69
2023/09/08 03:42:42;;;;;;;;;;;;;;;25.31;52.42;101222.75;4195998;28;19924;-69
2023/09/08 03:44:44;;;;;;;;;;;;;;;25.29;52.05;101219.34;4194766;28;19940;-70
2023/09/08 03:46:46;;;;;;;;;;;;;;;25.22;52.56;101203.88;4177954;28;19925;-70
2023/09/08 03:48:47;;;;;;;;;;;;;;;25.28;52.24;101211.41;4195987;28;20370;-70
2023/09/08 03:50:49;;;;;;;;;;;;;;;25.27;52.36;101215.94;4195194;28;19925;-70
2023/09/08 03:52:51;;;;;;;;;;;;;;;25.28;52.18;101219.47;4196156;28;19966;-69
2023/09/08 03:54:52;;;;;;;;;;;;;;;25.27;52.36;101218.63;4196118;28;19924;-69
2023/09/08 03:56:54;;;;;;;;;;;;;;;25.26;52.34;101213.38;4196073;28;20024;-69
2023/09/08 03:58:56;;;;;;;;;;;;;;;25.26;52.35;101216.91;4211576;28;19924;-70
2023/09/08 04:00:57;;;;;;;;;;;;;;;25.26;52.41;101218.75;4194687;28;20349;-69
2023/09/08 04:02:59;;;;;;;;;;;;;;;25.25;52.37;101212.53;4195846;28;20062;-69
2023/09/08 04:05:01;;;;;;;;;;;;;;;25.25;52.52;101211.66;4195736;28;19925;-69
2023/09/08 04:07:02;;;;;;;;;;;;;;;25.24;52.35;101207.28;4195795;28;19925;-70
2023/09/08 04:09:04;;;;;;;;;;;;;;;25.24;52.38;101205.44;4177882;28;19928;-70
2023/09/08 04:11:06;;;;;;;;;;;;;;;25.24;52.35;101209.97;4194844;28;20309;-70
2023/09/08 04:13:07;;;;;;;;;;;;;;;25.23;52.48;101209.13;4177863;28;20414;-68
2023/09/08 04:15:09;;;;;;;;;;;;;;;25.24;52.47;101212.66;4195211;28;19924;-69
2023/09/08 04:17:11;;;;;;;;;;;;;;;25.23;52.61;101211.81;4195738;28;19925;-70
2023/09/08 04:19:12;;;;;;;;;;;;;;;25.23;52.53;101214.50;4195309;27;19925;-69
2023/09/08 04:21:14;;;;;;;;;;;;;;;25.22;52.61;101215.50;4177040;28;19993;-70
2023/09/08 04:23:15;;;;;;;;;;;;;;;25.22;52.39;101212.81;4195699;28;19924;-69
2023/09/08 04:25:17;;;;;;;;;;;;;;;25.21;52.47;101216.47;4195687;28;19977;-70
2023/09/08 04:27:19;;;;;;;;;;;;;;;25.22;52.51;101223.56;4195842;28;20014;-69
2023/09/08 04:29:20;;;;;;;;;;;;;;;25.20;52.74;101221.03;4195522;28;19984;-70
2023/09/08 04:31:22;;;;;;;;;;;;;;;25.20;52.37;101217.47;4194111;28;19924;-70
2023/09/08 04:33:24;;;;;;;;;;;;;;;25.19;52.56;101224.72;4195345;28;19935;-70
2023/09/08 04:35:26;;;;;;;;;;;;;;;25.18;52.62;101214.09;4195464;28;19932;-70
2023/09/08 04:37:28;;;;;;;;;;;;;;;25.18;52.92;101222.16;4195449;28;19931;-69
2023/09/08 04:39:29;;;;;;;;;;;;;;;25.16;52.76;101224.97;4195325;28;19931;-69
2023/09/08 04:41:35;;;;;;;;;;;;;;;25.16;52.89;101221.44;4194482;28;19928;-69
2023/09/08 04:43:36;;;;;;;;;;;;;;;25.16;52.97;101221.44;4195236;28;19924;-69
2023/09/08 04:45:38;;;;;;;;;;;;;;;25.15;52.70;101222.41;4195106;28;19951;-69
2023/09/08 04:47:40;;;;;;;;;;;;;;;25.14;52.90;101220.72;4195510;27;19985;-70
2023/09/08 04:49:42;;;;;;;;;;;;;;;25.13;53.04;101219.88;4195287;28;19924;-69
2023/09/08 04:51:44;;;;;;;;;;;;;;;25.12;52.95;101220.03;4176485;28;19983;-70
2023/09/08 04:53:45;;;;;;;;;;;;;;;25.11;52.67;101221.84;4195425;28;20408;-69
2023/09/08 04:55:47;;;;;;;;;;;;;;;25.11;52.65;101224.53;4194789;28;19925;-69
2023/09/08 04:57:52;;;;;;;;;;;;;;;25.11;53.13;101231.78;4195172;28;20007;-69
2023/09/08 04:59:53;;;;;;;;;;;;;;;25.10;52.80;101224.69;4194712;28;20051;-69
2023/09/08 05:01:55;;;;;;;;;;;;;;;25.09;53.13;101226.50;4194305;28;19928;-70
2023/09/08 05:03:56;;;;;;;;;;;;;;;25.08;52.83;101218.56;4195093;28;19967;-70
2023/09/08 05:05:58;;;;;;;;;;;;;;;25.07;52.80;101222.25;4195024;28;19928;-69
2023/09/08 05:08:00;;;;;;;;;;;;;;;25.08;52.80;101226.66;4194957;28;19925;-70
2023/09/08 05:10:02;;;;;;;;;;;;;;;25.05;52.70;101227.78;4195054;28;19924;-70
2023/09/08 05:12:04;;;;;;;;;;;;;;;25.05;52.81;101230.47;4193972;28;20389;-70
2023/09/08 05:14:05;;;;;;;;;;;;;;;25.06;53.13;101225.97;4194636;28;19935;-70
2023/09/08 05:16:18;;;;;;;;;;;;;;;25.04;52.76;101226.94;4194819;28;19924;-70
2023/09/08 05:18:20;;;;;;;;;;;;;;;25.04;52.81;101224.25;4194727;28;19959;-70
2023/09/08 05:20:22;;;;;;;;;;;;;;;25.05;52.77;101225.09;4177175;28;19935;-68
2023/09/08 05:22:23;;;;;;;;;;;;;;;25.04;53.13;101228.75;4193796;28;19960;-69
2023/09/08 05:24:27;;;;;;;;;;;;;;;25.03;53.16;101230.63;4195021;28;19925;-69
2023/09/08 05:26:31;;;;;;;;;;;;;;;25.03;52.99;101233.31;4194758;27;19988;-69
2023/09/08 05:28:33;;;;;;;;;;;;;;;25.01;53.16;101229.88;4194570;28;20011;-71
2023/09/08 05:30:39;;;;;;;;;;;;;;;25.01;53.15;101232.59;4194632;28;19924;-70
2023/09/08 05:32:41;;;;;;;;;;;;;;;25.01;53.09;101235.28;4193669;28;19936;-69
2023/09/08 05:34:43;;;;;;;;;;;;;;;25.01;53.10;101235.28;4210281;28;19931;-69
2023/09/08 05:36:44;;;;;;;;;;;;;;;25.01;53.27;101234.44;4194650;28;19931;-69
2023/09/08 05:38:46;;;;;;;;;;;;;;;25.00;52.95;101236.25;4194575;28;19973;-69
2023/09/08 05:40:47;;;;;;;;;;;;;;;25.01;52.91;101239.81;4194499;28;20274;-70
2023/09/08 05:42:49;;;;;;;;;;;;;;;25.00;53.12;101241.63;4193374;28;19969;-69
2023/09/08 05:44:50;;;;;;;;;;;;;;;25.00;52.97;101240.81;4194408;28;19924;-69
2023/09/08 05:46:52;;;;;;;;;;;;;;;24.99;53.17;101242.63;4194428;28;19924;-68
2023/09/08 05:48:54;;;;;;;;;;;;;;;24.99;53.30;101245.31;4194398;28;19945;-69
2023/09/08 05:50:55;;;;;;;;;;;;;;;24.98;53.32;101235.56;4193812;28;19975;-69
2023/09/08 05:52:57;;;;;;;;;;;;;;;24.98;53.00;101238.25;4194272;28;19985;-68
2023/09/08 05:54:59;;;;;;;;;;;;;;;24.97;53.19;101236.53;4194455;28;19992;-69
2023/09/08 05:57:06;;;;;;;;;;;;;;;24.98;53.31;101245.47;4193894;28;19967;-69
2023/09/08 05:59:07;;;;;;;;;;;;;;;24.98;53.11;101248.16;4194352;28;19931;-69
2023/09/08 06:01:09;;;;;;;;;;;;;;;24.97;53.12;101247.31;4193577;28;19949;-68
2023/09/08 06:03:10;;;;;;;;;;;;;;;24.96;53.41;101248.28;4194053;28;19977;-69
2023/09/08 06:05:15;;;;;;;;;;;;;;;24.96;53.39;101250.97;4194443;28;20067;-69
2023/09/08 06:07:17;;;;;;;;;;;;;;;24.95;53.46;101249.28;4176678;28;20023;-69
2023/09/08 06:09:19;;;;;;;;;;;;;;;24.96;53.11;101255.50;4196640;28;19946;-69
2023/09/08 06:11:20;;;;;;;;;;;;;;;24.94;53.09;101250.25;4211280;28;20014;-69
2023/09/08 06:13:22;;;;;;;;;;;;;;;24.94;53.19;101249.41;4197547;28;20302;-70
2023/09/08 06:15:24;;;;;;;;;;;;;;;24.94;53.06;101246.72;4212863;28;19924;-69
2023/09/08 06:17:25;;;;;;;;;;;;;;;24.93;53.29;101251.25;4197250;28;19932;-69
2023/09/08 06:19:27;;;;;;;;;;;;;;;24.93;53.41;101248.56;4196897;27;19925;-69
2023/09/08 06:21:29;;;;;;;;;;;;;;;24.93;53.19;101250.41;4196497;28;20365;-70
2023/09/08 06:23:30;;;;;;;;;;;;;;;24.94;53.18;101252.13;4212646;28;19928;-69
2023/09/08 06:25:32;;;;;;;;;;;;;;;24.92;53.47;101252.22;4196771;28;19928;-69
2023/09/08 06:27:34;;;;;;;;;;;;;;;24.92;53.31;101244.16;4196890;28;19964;-69
2023/09/08 06:29:35;;;;;;;;;;;;;;;24.93;53.37;101253.09;4197138;28;19964;-68
2023/09/08 06:31:37;;;;;;;;;;;;;;;24.91;53.15;101255.94;4195997;28;19956;-69
2023/09/08 06:33:39;;;;;;;;;;;;;;;24.90;53.40;101256.91;4212544;28;20312;-69
2023/09/08 06:35:41;;;;;;;;;;;;;;;24.91;53.25;101257.75;4197059;28;19964;-69
2023/09/08 06:37:45;;;;;;;;;;;;;;;24.91;53.02;101257.75;4197138;28;19928;-69
2023/09/08 06:39:46;;;;;;;;;;;;;;;24.91;52.93;101257.75;4197081;28;20281;-69
2023/09/08 06:41:48;;;;;;;;;;;;;;;24.91;53.24;101257.75;4195519;28;19953;-69
2023/09/08 06:43:49;;;;;;;;;;;;;;;24.90;53.15;101259.59;4196687;28;19928;-68
2023/09/08 06:45:51;;;;;;;;;;;;;;;24.89;52.92;101247.13;4196908;28;19924;-69
2023/09/08 06:47:55;;;;;;;;;;;;;;;24.89;53.06;101255.19;4196845;28;20294;-69
2023/09/08 06:49:57;;;;;;;;;;;;;;;24.88;53.15;101254.34;4196611;28;19935;-67
2023/09/08 06:51:58;;;;;;;;;;;;;;;24.90;53.18;101253.34;4195738;28;20019;-69
2023/09/08 06:54:00;;;;;;;;;;;;;;;24.88;53.26;101259.72;4196607;28;19931;-69
2023/09/08 06:56:02;;;;;;;;;;;;;;;24.88;53.04;101264.25;4196432;28;19925;-69
2023/09/08 06:58:04;;;;;;;;;;;;;;;24.88;53.16;101265.09;4196956;28;19925;-70
2023/09/08 07:00:07;;;;;;;;;;;;;;;24.88;53.13;101264.25;4196759;28;20345;-69
2023/09/08 07:02:08;;;;;;;;;;;;;;;24.88;53.07;101267.78;4195738;28;19924;-70
2023/09/08 07:04:10;;;;;;;;;;;;;;;24.87;53.23;101263.41;4196739;28;19924;-70
2023/09/08 07:06:12;;;;;;;;;;;;;;;24.90;53.15;101264.13;4196650;28;19993;-69
2023/09/08 07:08:15;;;;;;;;;;;;;;;24.88;53.37;101270.47;4196725;28;19924;-68
2023/09/08 07:10:17;;;;;;;;;;;;;;;24.89;53.33;101260.59;4195965;28;19928;-69
2023/09/08 07:12:19;;;;;;;;;;;;;;;24.90;53.36;101266.81;4195272;28;19924;-69
2023/09/08 07:14:20;;;;;;;;;;;;;;;24.90;52.97;101267.69;4196323;28;19928;-69
2023/09/08 07:16:22;;;;;;;;;;;;;;;24.90;53.20;101262.28;4196519;28;20308;-70
2023/09/08 07:18:28;;;;;;;;;;;;;;;24.90;53.41;101264.13;4196293;27;19932;-70
2023/09/08 07:20:30;;;;;;;;;;;;;;;24.90;53.04;101266.81;4196014;28;19924;-69
2023/09/08 07:22:31;;;;;;;;;;;;;;;24.90;53.28;101269.50;4195604;28;20349;-70
2023/09/08 07:24:33;;;;;;;;;;;;;;;24.91;53.40;101268.50;4196213;28;19946;-70
2023/09/08 07:26:34;;;;;;;;;;;;;;;24.92;53.29;101270.22;4196527;28;19931;-70
2023/09/08 07:28:36;;;;;;;;;;;;;;;24.93;52.85;101271.94;4196108;28;19924;-70
2023/09/08 07:30:38;;;;;;;;;;;;;;;24.94;52.97;101268.25;4196456;28;19925;-70
2023/09/08 07:32:40;;;;;;;;;;;;;;;24.94;52.96;101271.78;4195514;28;19932;-70
2023/09/08 07:34:42;;;;;;;;;;;;;;;24.94;52.91;101274.47;4196548;28;19953;-70
2023/09/08 07:36:43;;;;;;;;;;;;;;;24.95;52.92;101267.28;4196214;27;20011;-70
2023/09/08 07:38:46;;;;;;;;;;;;;;;24.97;52.70;101281.41;4195974;28;19925;-70
2023/09/08 07:40:47;;;;;;;;;;;;;;;24.97;52.87;101273.34;4196257;28;20359;-69
2023/09/08 07:42:49;;;;;;;;;;;;;;;24.98;52.76;101275.94;4195219;28;20274;-70
2023/09/08 07:44:50;;;;;;;;;;;;;;;24.99;52.96;101269.53;4196012;28;19924;-69
2023/09/08 07:46:52;;;;;;;;;;;;;;;25.00;52.73;101265.84;4196291;28;19925;-70
2023/09/08 07:48:53;;;;;;;;;;;;;;;25.01;53.10;101272.94;4195920;28;19976;-71
2023/09/08 07:50:55;;;;;;;;;;;;;;;25.02;52.86;101268.44;4195921;28;19978;-69
2023/09/08 07:53:01;;;;;;;;;;;;;;;25.03;52.69;101278.19;4194826;28;19935;-69
2023/09/08 07:55:03;;;;;;;;;;;;;;;25.04;52.66;101266.44;4195916;28;19932;-69
2023/09/08 07:57:05;;;;;;;;;;;;;;;25.06;52.49;101271.72;4196043;28;19925;-70
2023/09/08 07:59:07;;;;;;;;;;;;;;;25.08;52.62;101269.72;4195769;28;20037;-69
2023/09/08 08:01:08;;;;;;;;;;;;;;;25.09;52.73;101274.09;4195801;28;19960;-69
2023/09/08 08:03:15;;;;;;;;;;;;;;;25.10;52.83;101268.59;4187285;28;19925;-61
2023/09/08 08:05:22;;;;;;;;;;;;;;;25.12;52.60;101272.00;4179243;28;20338;-61
2023/09/08 08:07:29;;;;;;;;;;;;;;;25.13;52.90;101275.53;4178538;28;19991;-63
2023/09/08 08:09:31;;;;;;;;;;;;;;;25.14;52.96;101267.34;4189240;28;19951;-72
2023/09/08 08:11:33;;;;;;;;;;;;;;;25.20;52.75;101274.00;4193551;28;19981;-67
2023/09/08 08:13:35;;;;;;;;;;;;;;;25.21;52.89;101275.72;4196000;27;20382;-65
2023/09/08 08:15:37;;;;;;;;;;;;;;;25.25;52.79;101269.06;4190760;28;20011;-72
2023/09/08 08:17:39;;;;;;;;;;;;;;;25.28;52.43;101273.34;4200531;27;19928;-69
2023/09/08 08:19:41;;;;;;;;;;;;;;;25.32;52.47;101269.34;4237929;27;20346;-69
2023/09/08 08:21:42;;;;;;;;;;;;;;;25.34;52.20;101270.91;4193940;28;20020;-71
2023/09/08 08:23:44;;;;;;;;;;;;;;;25.35;52.19;101269.94;4198388;27;19925;-69
2023/09/08 08:25:45;;;;;;;;;;;;;;;25.36;52.37;101277.03;4226054;27;19924;-69
2023/09/08 08:27:47;;;;;;;;;;;;;;;25.40;52.78;101279.50;4199699;27;20050;-69
2023/09/08 08:29:53;;;;;;;;;;;;;;;25.42;52.71;101274.78;4202778;27;19928;-70
2023/09/08 08:31:55;;;;;;;;;;;;;;;25.45;52.33;101285.31;4280892;27;19923;-70
2023/09/08 08:33:56;;;;;;;;;;;;;;;25.47;52.59;101286.88;4247965;27;20402;-61
2023/09/08 08:35:58;;;;;;;;;;;;;;;25.49;52.35;101284.03;4238775;27;19927;-66
2023/09/08 08:38:05;;;;;;;;;;;;;;;25.52;51.92;101290.00;4278419;27;19970;-66
2023/09/08 08:40:12;;;;;;;;;;;;;;;25.56;51.91;101287.88;4190065;28;19983;-66
2023/09/08 08:42:14;;;;;;;;;;;;;;;25.58;51.35;101287.72;4193984;28;19925;-66
2023/09/08 08:44:18;;;;;;;;;;;;;;;25.60;51.32;101281.25;4216170;27;19929;-69
2023/09/08 08:46:21;;;;;;;;;;;;;;;25.63;51.57;101282.78;4239593;27;19923;-68
2023/09/08 08:48:24;;;;;;;;;;;;;;;25.66;51.29;101286.06;4281320;27;19974;-66
2023/09/08 08:50:32;;;;;;;;;;;;;;;25.72;50.78;101283.78;4211465;27;20389;-66
2023/09/08 08:52:33;;;;;;;;;;;;;;;25.76;50.34;101290.59;4281221;27;20341;-67
2023/09/08 08:54:38;;;;;;;;;;;;;;;25.77;50.45;101287.78;4247666;27;19925;-68
2023/09/08 08:56:40;;;;;;;;;;;;;;;25.82;49.98;101290.03;4196912;27;19924;-67
2023/09/08 08:58:42;;;;;;;;;;;;;;;25.84;50.46;101291.59;4184785;27;19932;-68
2023/09/08 09:00:45;;;;;;;;;;;;;;;25.86;50.42;101288.78;4263205;27;19922;-69
2023/09/08 09:02:49;;;;;;;;;;;;;;;25.90;50.40;101292.03;4199420;28;19931;-69
2023/09/08 09:05:13;;;;;;;;;;;;;;;25.95;50.20;101287.06;4221394;27;19922;-66
2023/09/08 09:07:15;;;;;;;;;;;;;;;26.02;49.88;101284.66;4194426;28;19969;-68
2023/09/08 09:09:17;;;;;;;;;;;;;;;26.02;50.04;101282.81;4198359;27;20373;-67
2023/09/08 09:11:19;;;;;;;;;;;;;;;26.04;49.88;101293.44;4211819;27;19929;-68
2023/09/08 09:13:21;;;;;;;;;;;;;;;26.05;49.79;101292.44;4202896;27;19968;-65
2023/09/08 09:15:34;;;;;;;;;;;;;;;26.09;50.19;101288.50;4207890;27;19925;-63
2023/09/08 09:17:36;;;;;;;;;;;;;;;26.09;50.00;101286.66;4201201;28;19924;-68
2023/09/08 09:19:38;;;;;;;;;;;;;;;26.10;50.00;101288.38;4212107;27;19967;-64
2023/09/08 09:21:43;;;;;;;;;;;;;;;26.10;49.93;101284.81;4210588;27;20602;-66
2023/09/08 09:23:45;;;;;;;;;;;;;;;26.12;49.68;101288.22;4281475;27;19926;-71
2023/09/08 09:25:47;;;;;;;;;;;;;;;26.12;49.45;101282.84;4241495;27;19931;-67
2023/09/08 09:27:50;;;;;;;;;;;;;;;26.12;49.75;101280.97;4244226;27;19926;-65
2023/09/08 09:29:51;;;;;;;;;;;;;;;26.14;49.93;101280.84;4238426;27;19925;-68
2023/09/08 09:32:01;;;;;;;;;;;;;;;26.14;50.02;101279.00;4188862;27;19931;-65
2023/09/08 09:34:05;;;;;;;;;;;;;;;26.18;50.02;101282.25;4193770;27;20397;-66
2023/09/08 09:36:09;;;;;;;;;;;;;;;26.21;49.50;101287.38;4195019;27;19931;-74
2023/09/08 09:38:11;;;;;;;;;;;;;;;26.24;49.70;101280.84;4199320;28;20026;-68
2023/09/08 09:40:17;;;;;;;;;;;;;;;26.29;49.65;101283.94;4205638;27;20355;-75
2023/09/08 09:42:20;;;;;;;;;;;;;;;26.28;49.72;101284.94;4246796;27;20216;-65
2023/09/08 09:44:23;;;;;;;;;;;;;;;26.30;49.90;101278.41;4188369;28;19972;-70
2023/09/08 09:46:28;;;;;;;;;;;;;;;26.31;49.66;101281.97;4216430;27;20067;-74
2023/09/08 09:48:30;;;;;;;;;;;;;;;26.33;49.23;101284.53;4206392;27;19933;-64
2023/09/08 09:50:33;;;;;;;;;;;;;;;26.34;49.56;101278.13;4204980;27;19971;-69
2023/09/08 09:52:38;;;;;;;;;;;;;;;26.35;49.61;101279.84;4201159;27;20282;-76
2023/09/08 09:54:43;;;;;;;;;;;;;;;26.38;49.54;101279.53;4177573;28;20019;-61
2023/09/08 09:56:45;;;;;;;;;;;;;;;26.38;49.91;101266.06;4206229;27;20393;-63
2023/09/08 09:58:47;;;;;;;;;;;;;;;26.51;50.27;101271.97;4191083;28;19929;-66
2023/09/08 10:00:49;;;;;;;;;;;;;;;26.57;49.73;101274.09;4194409;27;19932;-73
2023/09/08 10:02:53;;;;;;;;;;;;;;;26.63;50.02;101275.38;4196945;27;19948;-69
2023/09/08 10:04:55;;;;;;;;;;;;;;;26.68;49.78;101273.06;4183032;28;20015;-71
2023/09/08 10:06:58;;;;;;;;;;;;;;;26.70;49.54;101267.56;4205794;27;19925;-74
2023/09/08 10:09:01;;;;;;;;;;;;;;;26.70;50.17;101268.38;4190153;28;19981;-66
2023/09/08 10:11:06;;;;;;;;;;;;;;;26.69;49.23;101265.84;4184329;28;20029;-71
2023/09/08 10:13:10;;;;;;;;;;;;;;;26.71;49.22;101266.53;4201836;27;20313;-72
2023/09/08 10:15:13;;;;;;;;;;;;;;;26.71;49.23;101262.00;4281099;27;19969;-67
2023/09/08 10:17:20;;;;;;;;;;;;;;;26.75;49.20;101259.88;4231302;27;19945;-63
2023/09/08 10:19:23;;;;;;;;;;;;;;;26.78;49.33;101267.66;4185211;28;20024;-65
2023/09/08 10:21:26;;;;;;;;;;;;;;;26.81;48.93;101269.25;4192857;28;19924;-73
2023/09/08 10:23:32;;;;;;;;;;;;;;;26.83;48.80;101270.81;4196631;27;20338;-74
2023/09/08 10:25:35;;;;;;;;;;;;;;;26.88;48.83;101270.31;4280750;27;20353;-76
2023/09/08 10:27:37;;;;;;;;;;;;;;;26.92;48.86;101263.66;4253085;27;20036;-62